createdAt,value
2022-10-11T00:04:30.773Z,9.53
2022-10-11T00:09:32.562Z,9.63
2022-10-11T00:14:34.081Z,9.67
2022-10-11T00:19:35.844Z,9.72
2022-10-11T00:24:37.574Z,9.78
2022-10-11T00:29:39.438Z,9.85
2022-10-11T00:34:40.814Z,9.85
2022-10-11T00:40:30.286Z,10.1
2022-10-11T00:44:43.416Z,10.09
2022-10-11T00:49:45.229Z,10.21
2022-10-11T00:54:46.600Z,10.38
2022-10-11T00:59:48.067Z,10.4
2022-10-11T01:04:57.401Z,10.45
2022-10-11T01:09:51.022Z,10.49
2022-10-11T01:14:52.629Z,10.52
2022-10-11T01:19:54.463Z,10.51
2022-10-11T01:24:55.974Z,10.52
2022-10-11T01:29:57.837Z,10.56
2022-10-11T01:34:59.837Z,10.55
2022-10-11T01:40:01.848Z,10.6
2022-10-11T01:45:03.702Z,10.58
2022-10-11T01:50:05.569Z,10.63
2022-10-11T01:55:09.829Z,10.62
2022-10-11T02:00:09.049Z,10.67
2022-10-11T02:05:10.949Z,10.67
2022-10-11T02:10:12.789Z,10.74
2022-10-11T02:15:14.235Z,10.75
2022-10-11T02:20:15.465Z,10.77
2022-10-11T02:25:17.544Z,10.84
2022-10-11T02:30:19.294Z,10.88
2022-10-11T02:35:21.192Z,10.87
2022-10-11T02:40:23.179Z,10.88
2022-10-11T02:45:25.177Z,10.93
2022-10-11T02:50:26.933Z,10.96
2022-10-11T02:55:29.008Z,10.95
2022-10-11T03:00:31.170Z,10.98
2022-10-11T03:05:33.194Z,10.97
2022-10-11T03:10:34.665Z,11
2022-10-11T03:15:36.143Z,10.99
2022-10-11T03:20:37.405Z,11.04
2022-10-11T03:25:38.743Z,11.03
2022-10-11T03:30:40.199Z,11.07
2022-10-11T03:35:41.587Z,11.07
2022-10-11T03:40:42.934Z,11.11
2022-10-11T03:45:44.554Z,11.1
2022-10-11T03:50:46.388Z,11.12
2022-10-11T03:56:01.517Z,11.16
2022-10-11T04:00:50.231Z,11.21
2022-10-11T04:05:52.423Z,11.19
2022-10-11T04:10:54.209Z,11.2
2022-10-11T04:16:43.786Z,11.39
2022-10-11T04:20:57.545Z,11.27
2022-10-11T04:25:58.787Z,11.24
2022-10-11T04:31:00.904Z,11.27
2022-10-11T04:36:02.585Z,11.26
2022-10-11T04:41:04.059Z,11.26
2022-10-11T04:46:06.202Z,11.28
2022-10-11T04:51:07.937Z,11.33
2022-10-11T04:56:09.869Z,11.32
2022-10-11T05:01:11.380Z,11.32
2022-10-11T05:06:13.433Z,11.31
2022-10-11T05:11:15.918Z,11.31
2022-10-11T05:16:16.570Z,11.35
2022-10-11T05:21:17.576Z,11.35
2022-10-11T05:31:20.426Z,11.39
2022-10-11T05:36:21.905Z,11.31
2022-10-11T05:41:23.193Z,11.28
2022-10-11T05:46:24.717Z,11.26
2022-10-11T05:51:25.964Z,11.27
2022-10-11T05:56:39.344Z,11.28
2022-10-11T06:01:29.769Z,11.32
2022-10-11T06:06:30.933Z,11.32
2022-10-11T06:11:32.274Z,11.38
2022-10-11T06:16:43.806Z,11.37
2022-10-11T06:21:35.039Z,11.44
2022-10-11T06:26:36.894Z,11.48
2022-10-11T06:31:38.199Z,11.56
2022-10-11T06:36:40.135Z,11.58
2022-10-11T06:41:41.305Z,11.66
2022-10-11T06:46:43.415Z,11.71
2022-10-11T06:51:44.594Z,11.8
2022-10-11T07:01:47.845Z,11.95
2022-10-11T07:06:49.691Z,12.01
2022-10-11T07:11:51.612Z,12.13
2022-10-11T07:22:04.301Z,12.3
2022-10-11T07:32:07.285Z,12.49
2022-10-11T07:42:11.204Z,12.62
2022-10-11T07:47:12.581Z,12.71
2022-10-11T08:02:17.642Z,12.74
2022-10-11T08:12:20.646Z,13.31
2022-10-11T08:17:22.437Z,13.71
2022-10-11T08:22:24.100Z,13.99
2022-10-11T08:27:25.745Z,14.09
2022-10-11T08:32:27.742Z,14.11
2022-10-11T08:37:29.067Z,14.23
2022-10-11T08:42:30.997Z,14.3
2022-10-11T08:47:32.833Z,14.38
2022-10-11T08:52:34.752Z,14.43
2022-10-11T08:57:36.180Z,14.42
2022-10-11T09:02:56.036Z,14.51
2022-10-11T09:07:39.576Z,14.51
2022-10-11T09:12:41.206Z,14.61
2022-10-11T09:17:43.028Z,14.6
2022-10-11T09:22:44.372Z,14.7
2022-10-11T09:28:03.087Z,14.8
2022-10-11T09:32:48.048Z,14.79
2022-10-11T09:37:49.365Z,14.85
2022-10-11T09:42:51.092Z,14.85
2022-10-11T09:47:52.977Z,14.87
2022-10-11T09:52:54.635Z,14.91
2022-10-11T09:57:56.672Z,15.03
2022-10-11T10:02:58.469Z,15.13
2022-10-11T10:08:01.651Z,15.13
2022-10-11T10:13:00.163Z,15.15
2022-10-11T10:18:01.910Z,15.12
2022-10-11T10:23:03.902Z,15.21
2022-10-11T10:28:06.045Z,15.27
2022-10-11T10:33:07.355Z,15.34
2022-10-11T10:38:08.481Z,15.42
2022-10-11T10:43:09.751Z,15.38
2022-10-11T10:48:11.208Z,15.74
2022-10-11T10:53:13.290Z,16.04
2022-10-11T10:58:18.564Z,16.29
2022-10-11T11:03:15.808Z,16.37
2022-10-11T11:08:18.144Z,16.75
2022-10-11T11:13:20.122Z,16.79
2022-10-11T11:18:21.959Z,16.92
2022-10-11T11:23:24.126Z,16.67
2022-10-11T11:28:26.412Z,16.5
2022-10-11T11:33:27.670Z,16.37
2022-10-11T11:38:29.809Z,16.32
2022-10-11T11:43:31.141Z,16.18
2022-10-11T11:48:32.644Z,16.01
2022-10-11T11:53:34.783Z,15.97
2022-10-11T11:58:36.322Z,16.02
2022-10-11T12:03:41.531Z,15.85
2022-10-11T12:08:39.634Z,15.99
2022-10-11T12:13:41.395Z,16.09
2022-10-11T12:18:43.051Z,16.1
2022-10-11T12:23:44.819Z,16.2
2022-10-11T12:28:46.818Z,16.31
2022-10-11T12:33:48.933Z,16.4
2022-10-11T12:38:50.760Z,16.49
2022-10-11T12:44:02.513Z,16.61
2022-10-11T12:48:53.568Z,16.54
2022-10-11T12:54:14.609Z,16.44
2022-10-11T12:58:58.681Z,16.29
2022-10-11T13:04:00.653Z,16.16
2022-10-11T13:09:02.528Z,15.94
2022-10-11T13:14:04.608Z,15.9
2022-10-11T13:19:05.865Z,15.77
2022-10-11T13:24:07.444Z,15.82
2022-10-11T13:29:09.120Z,15.74
2022-10-11T13:34:11.021Z,15.73
2022-10-11T13:39:12.443Z,15.72
2022-10-11T13:44:14.586Z,15.78
2022-10-11T13:49:15.983Z,15.7
2022-10-11T13:54:18.045Z,15.72
2022-10-11T13:59:19.220Z,15.76
2022-10-11T14:04:20.802Z,15.76
2022-10-11T14:09:22.427Z,15.77
2022-10-11T14:14:23.845Z,15.77
2022-10-11T14:19:25.959Z,15.75
2022-10-11T14:24:27.697Z,15.77
2022-10-11T14:29:29.697Z,15.74
2022-10-11T14:34:31.736Z,15.67
2022-10-11T14:39:33.059Z,15.6
2022-10-11T14:44:34.887Z,15.6
2022-10-11T14:49:36.581Z,15.64
2022-10-11T14:54:38.639Z,15.64
2022-10-11T14:59:40.702Z,15.64
2022-10-11T15:04:42.253Z,15.54
2022-10-11T15:09:44.022Z,15.59
2022-10-11T15:14:45.819Z,15.64
2022-10-11T15:19:47.728Z,15.54
2022-10-11T15:24:51.729Z,15.51
2022-10-11T15:29:51.663Z,15.47
2022-10-11T15:34:53.817Z,15.42
2022-10-11T15:39:55.776Z,15.33
2022-10-11T15:44:57.732Z,15.12
2022-10-11T15:49:59.236Z,15.12
2022-10-11T15:55:00.658Z,15.02
2022-10-11T16:00:01.969Z,14.94
2022-10-11T16:05:03.724Z,14.83
2022-10-11T16:10:53.364Z,14.95
2022-10-11T16:15:07.391Z,14.74
2022-10-11T16:20:09.434Z,14.62
2022-10-11T16:25:11.474Z,14.49
2022-10-11T16:30:13.079Z,14.41
2022-10-11T16:35:14.404Z,14.25
2022-10-11T16:40:16.004Z,14.11
2022-10-11T16:45:17.688Z,13.94
2022-10-11T16:50:19.610Z,13.86
2022-10-11T16:55:21.054Z,13.7
2022-10-11T17:00:23.379Z,13.65
2022-10-11T17:05:24.876Z,13.65
2022-10-11T17:10:26.243Z,13.58
2022-10-11T17:15:28.295Z,13.56
2022-10-11T17:20:29.842Z,13.55
2022-10-11T17:25:31.455Z,13.48
2022-10-11T17:30:32.785Z,13.48
2022-10-11T17:35:33.973Z,13.42
2022-10-11T17:40:35.700Z,13.42
2022-10-11T17:45:37.481Z,13.39
2022-10-11T17:50:39.385Z,13.3
2022-10-11T17:55:41.416Z,13.25
2022-10-11T18:00:43.221Z,13.23
2022-10-11T18:05:44.817Z,13.2
2022-10-11T18:10:47.653Z,13.18
2022-10-11T18:15:51.418Z,13.18
2022-10-11T18:20:49.460Z,13.09
2022-10-11T18:25:51.218Z,13.11
2022-10-11T18:30:53.402Z,13.06
2022-10-11T18:35:55.261Z,13.01
2022-10-11T18:40:56.900Z,12.99
2022-10-11T18:45:58.567Z,12.95
2022-10-11T18:51:00.335Z,12.97
2022-10-11T18:56:02.317Z,12.93
2022-10-11T19:01:04.060Z,12.94
2022-10-11T19:06:06.267Z,12.89
2022-10-11T19:11:08.108Z,12.85
2022-10-11T19:16:09.921Z,12.82
2022-10-11T19:21:11.144Z,12.8
2022-10-11T19:26:12.669Z,12.79
2022-10-11T19:31:14.180Z,12.81
2022-10-11T19:36:15.305Z,12.77
2022-10-11T19:41:17.079Z,12.76
2022-10-11T19:46:32.330Z,12.74
2022-10-11T19:51:20.942Z,12.72
2022-10-11T19:56:22.742Z,12.69
2022-10-11T20:01:24.461Z,12.67
2022-10-11T20:06:26.014Z,12.66
2022-10-11T20:11:27.886Z,12.66
2022-10-11T20:16:29.656Z,12.63
2022-10-11T20:21:30.952Z,12.59
2022-10-11T20:26:32.238Z,12.62
2022-10-11T20:31:34.118Z,12.63
2022-10-11T20:36:35.860Z,12.59
2022-10-11T20:41:37.375Z,12.6
2022-10-11T20:46:39.514Z,12.57
2022-10-11T20:51:40.799Z,12.58
2022-10-11T20:57:30.494Z,12.75
2022-10-11T21:01:43.525Z,12.59
2022-10-11T21:06:45.250Z,12.48
2022-10-11T21:11:47.174Z,12.41
2022-10-11T21:16:49.040Z,12.42
2022-10-11T21:21:53.618Z,12.4
2022-10-11T21:31:53.359Z,12.33
2022-10-11T21:47:13.293Z,12.29
2022-10-11T22:12:05.216Z,12.21
2022-10-11T22:17:07.210Z,12.16
2022-10-11T22:32:12.965Z,12.07
2022-10-11T22:47:17.753Z,11.99
2022-10-11T22:52:18.991Z,11.94
2022-10-11T22:57:21.011Z,11.86
2022-10-11T23:02:22.700Z,11.84
2022-10-11T23:07:24.817Z,11.77
2022-10-11T23:12:26.531Z,11.75
2022-10-11T23:18:16.146Z,11.88
2022-10-11T23:22:30.197Z,11.7
2022-10-11T23:27:31.925Z,11.65
2022-10-11T23:32:33.682Z,11.58
2022-10-11T23:37:35.324Z,11.54
2022-10-11T23:42:37.262Z,11.46
2022-10-11T23:47:39.655Z,11.39
2022-10-11T23:53:28.814Z,11.53
2022-10-11T23:57:42.876Z,11.38
